createdAt,value
2022-12-08T00:01:20.466Z,1.80
2022-12-08T00:03:55.143Z,1.80
2022-12-08T00:07:01.229Z,1.80
2022-12-08T00:09:39.806Z,1.80
2022-12-08T00:12:19.038Z,1.90
2022-12-08T00:14:50.723Z,1.90
2022-12-08T00:17:22.216Z,1.90
2022-12-08T00:19:53.331Z,1.90
2022-12-08T00:22:23.939Z,1.80
2022-12-08T00:24:52.771Z,1.80
2022-12-08T00:27:24.971Z,1.80
2022-12-08T00:29:55.991Z,1.80
2022-12-08T00:32:26.734Z,1.80
2022-12-08T00:34:58.799Z,1.80
2022-12-08T00:37:26.634Z,1.90
2022-12-08T00:39:57.572Z,1.90
2022-12-08T00:42:29.413Z,1.90
2022-12-08T00:47:41.429Z,2.00
2022-12-08T00:50:11.689Z,2.00
2022-12-08T00:52:41.070Z,2.10
2022-12-08T00:55:10.963Z,2.10
2022-12-08T00:57:44.346Z,2.10
2022-12-08T01:00:15.767Z,2.10
2022-12-08T01:05:28.974Z,2.00
2022-12-08T01:10:43.193Z,2.10
2022-12-08T01:15:54.426Z,2.10
2022-12-08T01:21:10.620Z,2.10
2022-12-08T01:23:40.793Z,2.10
2022-12-08T01:26:17.810Z,2.10
2022-12-08T01:28:48.257Z,2.10
2022-12-08T01:31:19.611Z,2.10
2022-12-08T01:33:51.305Z,2.10
2022-12-08T01:36:28.647Z,2.10
2022-12-08T01:39:06.114Z,2.00
2022-12-08T01:41:37.505Z,2.00
2022-12-08T01:44:12.939Z,2.10
2022-12-08T01:46:42.293Z,2.10
2022-12-08T01:49:32.670Z,2.10
2022-12-08T01:52:22.291Z,2.10
2022-12-08T01:55:00.066Z,2.10
2022-12-08T01:57:42.468Z,2.20
2022-12-08T02:03:20.031Z,2.20
2022-12-08T02:05:54.875Z,2.20
2022-12-08T02:08:26.985Z,2.20
2022-12-08T02:10:58.175Z,2.20
2022-12-08T02:13:30.461Z,2.20
2022-12-08T02:16:35.354Z,2.20
2022-12-08T02:19:41.399Z,2.20
2022-12-08T02:22:24.452Z,2.30
2022-12-08T02:25:38.287Z,2.30
2022-12-08T02:28:53.945Z,2.30
2022-12-08T02:31:52.646Z,2.30
2022-12-08T02:35:08.707Z,2.30
2022-12-08T02:37:53.596Z,2.30
2022-12-08T02:40:53.133Z,2.30
2022-12-08T02:43:57.598Z,2.40
2022-12-08T02:46:51.080Z,2.40
2022-12-08T02:49:20.653Z,2.40
2022-12-08T02:51:53.117Z,2.40
2022-12-08T02:54:23.021Z,2.30
2022-12-08T02:57:16.020Z,2.30
2022-12-08T03:00:16.699Z,2.30
2022-12-08T03:03:13.997Z,2.40
2022-12-08T03:06:20.877Z,2.40
2022-12-08T03:12:27.928Z,2.30
2022-12-08T03:14:59.274Z,2.40
2022-12-08T03:17:31.251Z,2.30
2022-12-08T03:20:06.456Z,2.20
2022-12-08T03:22:37.930Z,2.30
2022-12-08T03:25:28.295Z,2.40
2022-12-08T03:27:57.106Z,2.40
2022-12-08T03:30:27.083Z,2.40
2022-12-08T03:33:08.400Z,2.40
2022-12-08T03:35:41.772Z,2.40
2022-12-08T03:38:17.757Z,2.40
2022-12-08T03:41:13.806Z,2.30
2022-12-08T03:44:00.074Z,2.30
2022-12-08T03:49:15.687Z,2.30
2022-12-08T03:51:43.585Z,2.40
2022-12-08T03:56:56.831Z,2.40
2022-12-08T04:02:10.127Z,2.30
2022-12-08T04:04:40.771Z,2.20
2022-12-08T04:07:11.832Z,2.30
2022-12-08T04:09:45.077Z,2.30
2022-12-08T04:12:13.401Z,2.40
2022-12-08T04:14:43.319Z,2.40
2022-12-08T04:17:15.147Z,2.30
2022-12-08T04:19:46.936Z,2.30
2022-12-08T04:22:18.654Z,2.30
2022-12-08T04:24:47.455Z,2.40
2022-12-08T04:27:17.660Z,2.40
2022-12-08T04:29:47.534Z,2.50
2022-12-08T04:32:17.155Z,2.40
2022-12-08T04:34:48.630Z,2.40
2022-12-08T04:37:17.547Z,2.40
2022-12-08T04:39:46.369Z,2.40
2022-12-08T04:42:14.676Z,2.50
2022-12-08T04:44:45.490Z,2.50
2022-12-08T04:47:14.318Z,2.50
2022-12-08T04:49:42.368Z,2.40
2022-12-08T04:52:12.174Z,2.40
2022-12-08T04:54:43.048Z,2.40
2022-12-08T04:57:11.780Z,2.40
2022-12-08T04:59:41.421Z,2.40
2022-12-08T05:02:09.003Z,2.40
2022-12-08T05:04:37.387Z,2.40
2022-12-08T05:07:06.775Z,2.50
2022-12-08T05:09:37.488Z,2.40
2022-12-08T05:12:09.452Z,2.50
2022-12-08T05:14:38.665Z,2.40
2022-12-08T05:17:11.252Z,2.40
2022-12-08T05:19:43.150Z,2.30
2022-12-08T05:22:12.021Z,2.40
2022-12-08T05:24:47.346Z,2.40
2022-12-08T05:27:17.360Z,2.40
2022-12-08T05:29:51.417Z,2.30
2022-12-08T05:32:19.706Z,2.40
2022-12-08T05:34:53.074Z,2.30
2022-12-08T05:37:22.748Z,2.30
2022-12-08T05:39:53.661Z,2.40
2022-12-08T05:42:24.937Z,2.40
2022-12-08T05:44:53.373Z,2.50
2022-12-08T05:47:23.095Z,2.20
2022-12-08T05:49:53.895Z,2.40
2022-12-08T05:52:24.847Z,2.40
2022-12-08T05:54:55.039Z,2.40
2022-12-08T05:57:26.048Z,2.40
2022-12-08T06:00:03.351Z,2.50
2022-12-08T06:02:44.366Z,2.40
2022-12-08T06:05:14.509Z,2.40
2022-12-08T06:07:42.385Z,2.40
2022-12-08T06:10:13.572Z,2.40
2022-12-08T06:12:43.737Z,2.40
2022-12-08T06:15:15.199Z,2.40
2022-12-08T06:17:44.584Z,2.40
2022-12-08T06:20:13.443Z,2.50
2022-12-08T06:22:43.252Z,2.40
2022-12-08T06:25:24.407Z,2.50
2022-12-08T06:30:37.508Z,2.60
2022-12-08T06:33:08.087Z,2.70
2022-12-08T06:35:41.639Z,2.60
2022-12-08T06:38:13.147Z,2.70
2022-12-08T06:43:26.822Z,2.70
2022-12-08T06:45:54.646Z,2.70
2022-12-08T06:48:23.858Z,2.70
2022-12-08T06:50:52.657Z,2.70
2022-12-08T06:56:06.942Z,2.70
2022-12-08T06:58:37.099Z,2.70
2022-12-08T07:01:17.846Z,2.70
2022-12-08T07:03:50.084Z,2.80
2022-12-08T07:06:26.871Z,2.90
2022-12-08T07:09:05.017Z,2.90
2022-12-08T07:11:36.220Z,3.00
2022-12-08T07:14:12.338Z,3.00
2022-12-08T07:16:42.608Z,3.00
2022-12-08T07:19:16.479Z,3.10
2022-12-08T07:21:46.941Z,3.20
2022-12-08T07:26:58.319Z,3.40
2022-12-08T07:29:27.807Z,3.50
2022-12-08T07:32:05.812Z,3.50
2022-12-08T07:34:43.225Z,3.50
2022-12-08T07:37:11.708Z,3.60
2022-12-08T07:42:26.832Z,3.70
2022-12-08T07:44:57.636Z,3.80
2022-12-08T07:47:27.713Z,3.80
2022-12-08T07:49:58.662Z,3.90
2022-12-08T07:52:29.048Z,4.10
2022-12-08T07:55:03.158Z,4.10
2022-12-08T07:57:36.387Z,4.20
2022-12-08T08:00:05.760Z,4.20
2022-12-08T08:02:43.489Z,4.20
2022-12-08T08:07:57.768Z,4.30
2022-12-08T08:10:30.232Z,4.40
2022-12-08T08:13:03.048Z,4.40
2022-12-08T08:15:34.196Z,4.50
2022-12-08T08:18:14.978Z,4.60
2022-12-08T08:20:46.539Z,4.70
2022-12-08T08:23:14.331Z,4.90
2022-12-08T08:25:57.303Z,4.90
2022-12-08T08:31:10.102Z,5.10
2022-12-08T08:33:40.894Z,5.00
2022-12-08T08:36:12.010Z,5.00
2022-12-08T08:38:43.684Z,5.10
2022-12-08T08:41:19.231Z,5.00
2022-12-08T08:43:50.177Z,4.90
2022-12-08T08:46:20.492Z,5.00
2022-12-08T08:48:49.062Z,5.00
2022-12-08T08:51:19.779Z,4.90
2022-12-08T08:53:49.837Z,4.90
2022-12-08T08:56:27.229Z,4.90
2022-12-08T08:58:58.598Z,5.10
2022-12-08T09:01:37.855Z,5.20
2022-12-08T09:06:51.402Z,5.30
2022-12-08T09:12:07.259Z,5.50
2022-12-08T09:14:45.250Z,5.50
2022-12-08T09:17:17.692Z,5.70
2022-12-08T09:19:52.412Z,5.50
2022-12-08T09:22:20.401Z,5.60
2022-12-08T09:24:49.040Z,5.60
2022-12-08T09:27:23.275Z,5.50
2022-12-08T09:29:55.003Z,5.40
2022-12-08T09:32:26.288Z,5.50
2022-12-08T09:34:56.751Z,5.40
2022-12-08T09:37:24.172Z,5.50
2022-12-08T09:39:56.743Z,5.50
2022-12-08T09:42:45.744Z,5.60
2022-12-08T09:45:18.592Z,5.70
2022-12-08T09:48:11.022Z,5.70
2022-12-08T09:50:55.833Z,5.70
2022-12-08T09:53:37.197Z,5.70
2022-12-08T09:56:14.382Z,5.80
2022-12-08T09:59:03.168Z,5.80
2022-12-08T10:01:45.347Z,5.90
2022-12-08T10:04:28.335Z,6.00
2022-12-08T10:07:24.337Z,6.00
2022-12-08T10:10:14.419Z,6.00
2022-12-08T10:13:29.919Z,6.20
2022-12-08T10:16:31.253Z,6.30
2022-12-08T10:19:30.245Z,6.50
2022-12-08T10:21:59.449Z,6.40
2022-12-08T10:24:45.500Z,6.40
2022-12-08T10:27:22.750Z,6.30
2022-12-08T10:29:56.503Z,6.30
2022-12-08T10:32:33.723Z,6.30
2022-12-08T10:35:16.979Z,6.10
2022-12-08T10:38:06.919Z,6.10
2022-12-08T10:40:51.041Z,6.10
2022-12-08T10:43:27.605Z,6.10
2022-12-08T10:46:29.421Z,6.10
2022-12-08T10:49:09.070Z,6.10
2022-12-08T10:51:49.602Z,6.20
2022-12-08T10:54:37.845Z,6.20
2022-12-08T10:57:08.567Z,6.40
2022-12-08T10:59:44.919Z,6.50
2022-12-08T11:02:30.779Z,6.60
2022-12-08T11:05:00.614Z,6.60
2022-12-08T11:07:28.746Z,6.40
2022-12-08T11:09:59.072Z,6.40
2022-12-08T11:12:31.633Z,6.30
2022-12-08T11:18:01.564Z,6.20
2022-12-08T11:20:40.847Z,6.20
2022-12-08T11:23:24.732Z,6.20
2022-12-08T11:25:59.878Z,6.20
2022-12-08T11:28:30.497Z,6.20
2022-12-08T11:31:05.143Z,6.20
2022-12-08T11:33:34.649Z,6.10
2022-12-08T11:36:12.743Z,6.00
2022-12-08T11:38:49.675Z,6.10
2022-12-08T11:41:27.249Z,6.00
2022-12-08T11:44:35.841Z,6.00
2022-12-08T11:47:31.881Z,6.10
2022-12-08T11:50:23.014Z,6.30
2022-12-08T11:52:52.788Z,6.10
2022-12-08T11:55:36.994Z,6.10
2022-12-08T11:58:35.123Z,6.00
2022-12-08T12:01:03.556Z,5.90
2022-12-08T12:03:41.591Z,6.10
2022-12-08T12:09:42.179Z,6.10
2022-12-08T12:12:39.863Z,6.10
2022-12-08T12:15:32.541Z,6.00
2022-12-08T12:18:17.106Z,6.10
2022-12-08T12:21:05.308Z,6.00
2022-12-08T12:23:45.311Z,6.00
2022-12-08T12:26:25.787Z,6.00
2022-12-08T12:29:14.617Z,5.90
2022-12-08T12:31:47.458Z,5.90
2022-12-08T12:34:24.448Z,6.00
2022-12-08T12:37:04.761Z,6.00
2022-12-08T12:39:44.944Z,6.00
2022-12-08T12:42:38.561Z,6.00
2022-12-08T12:45:29.444Z,6.00
2022-12-08T12:47:57.254Z,6.00
2022-12-08T12:59:29.610Z,5.70
2022-12-08T13:01:58.382Z,5.70
2022-12-08T13:04:37.985Z,5.70
2022-12-08T13:07:05.866Z,5.70
2022-12-08T13:09:37.519Z,5.70
2022-12-08T13:12:19.977Z,5.70
2022-12-08T13:14:50.549Z,5.60
2022-12-08T13:17:28.770Z,5.70
2022-12-08T13:19:59.307Z,5.60
2022-12-08T13:22:50.765Z,5.60
2022-12-08T13:25:42.149Z,5.50
2022-12-08T13:28:29.328Z,5.60
2022-12-08T13:31:02.071Z,5.50
2022-12-08T13:33:32.889Z,5.50
2022-12-08T13:36:24.631Z,5.50
2022-12-08T13:38:59.945Z,5.50
2022-12-08T13:41:43.795Z,5.50
2022-12-08T13:48:30.175Z,5.50
2022-12-08T13:57:39.059Z,5.40
2022-12-08T14:00:19.488Z,5.40
2022-12-08T14:02:51.870Z,5.30
2022-12-08T14:05:35.151Z,5.30
2022-12-08T14:08:58.350Z,5.20
2022-12-08T14:11:39.856Z,5.10
2022-12-08T14:14:53.818Z,5.10
2022-12-08T14:17:23.133Z,5.00
2022-12-08T14:20:00.341Z,5.00
2022-12-08T14:22:35.571Z,4.90
2022-12-08T14:25:10.189Z,4.90
2022-12-08T14:27:52.729Z,5.00
2022-12-08T14:30:38.590Z,5.00
2022-12-08T14:33:27.558Z,5.00
2022-12-08T14:35:56.634Z,4.90
2022-12-08T14:38:27.233Z,4.90
2022-12-08T14:41:09.126Z,4.90
2022-12-08T14:43:42.404Z,4.90
2022-12-08T14:46:23.093Z,4.90
2022-12-08T14:48:54.241Z,4.70
2022-12-08T14:51:33.606Z,4.80
2022-12-08T14:54:13.912Z,4.90
2022-12-08T14:56:55.033Z,4.90
2022-12-08T14:59:35.769Z,4.80
2022-12-08T15:02:23.926Z,4.90
2022-12-08T15:05:23.914Z,4.90
2022-12-08T15:08:04.907Z,4.70
2022-12-08T15:10:40.522Z,4.60
2022-12-08T15:13:12.839Z,4.50
2022-12-08T15:16:07.665Z,4.60
2022-12-08T15:18:46.018Z,4.70
2022-12-08T15:24:00.812Z,4.80
2022-12-08T15:26:55.691Z,4.70
2022-12-08T15:29:28.343Z,4.70
2022-12-08T15:32:00.623Z,4.80
2022-12-08T15:34:38.811Z,4.80
2022-12-08T15:37:31.515Z,4.70
2022-12-08T15:40:09.518Z,4.70
2022-12-08T15:42:40.577Z,4.60
2022-12-08T15:45:26.879Z,4.60
2022-12-08T15:47:58.749Z,4.60
2022-12-08T15:50:33.677Z,4.70
2022-12-08T15:56:25.649Z,4.60
2022-12-08T15:58:55.585Z,4.70
2022-12-08T16:01:29.211Z,4.70
2022-12-08T16:04:55.421Z,4.70
2022-12-08T16:11:24.230Z,4.70
2022-12-08T16:13:57.544Z,4.60
2022-12-08T16:16:31.669Z,4.60
2022-12-08T16:19:02.956Z,4.60
2022-12-08T16:24:16.618Z,4.70
2022-12-08T16:27:58.796Z,4.60
2022-12-08T16:29:51.582Z,4.70
2022-12-08T16:32:23.871Z,4.60
2022-12-08T16:37:37.979Z,4.50
2022-12-08T16:40:13.545Z,4.60
2022-12-08T16:45:38.657Z,4.60
2022-12-08T16:48:20.011Z,4.60
2022-12-08T16:50:51.518Z,4.60
2022-12-08T16:53:23.134Z,4.50
2022-12-08T16:55:50.912Z,4.60
2022-12-08T17:01:02.574Z,4.50
2022-12-08T17:03:40.009Z,4.60
2022-12-08T17:06:15.963Z,4.50
2022-12-08T17:08:53.229Z,4.60
2022-12-08T17:11:42.398Z,4.60
2022-12-08T17:14:23.784Z,4.60
2022-12-08T17:16:55.294Z,4.60
2022-12-08T17:19:29.440Z,4.60
2022-12-08T17:22:00.307Z,4.50
2022-12-08T17:24:33.555Z,4.40
2022-12-08T17:27:20.459Z,4.40
2022-12-08T17:29:51.559Z,4.40
2022-12-08T17:35:08.754Z,4.40
2022-12-08T17:37:45.014Z,4.60
2022-12-08T17:40:18.751Z,4.50
2022-12-08T17:42:47.540Z,4.50
2022-12-08T17:45:18.891Z,4.40
2022-12-08T17:48:02.005Z,4.40
2022-12-08T17:53:19.954Z,4.60
2022-12-08T17:55:58.979Z,4.60
2022-12-08T17:58:35.914Z,4.60
2022-12-08T18:01:17.605Z,4.60
2022-12-08T18:03:51.063Z,4.60
2022-12-08T18:06:21.140Z,4.60
2022-12-08T18:08:54.794Z,4.50
2022-12-08T18:11:28.223Z,4.60
2022-12-08T18:14:12.705Z,4.50
2022-12-08T18:19:32.255Z,4.40
2022-12-08T18:22:04.785Z,4.40
2022-12-08T18:24:33.540Z,4.40
2022-12-08T18:27:03.536Z,4.50
2022-12-08T18:29:41.924Z,4.50
2022-12-08T18:32:13.706Z,4.40
2022-12-08T18:34:45.591Z,4.40
2022-12-08T18:37:20.522Z,4.40
2022-12-08T18:40:12.771Z,4.50
2022-12-08T18:45:27.733Z,4.50
2022-12-08T18:50:51.815Z,4.50
2022-12-08T18:56:09.163Z,4.50
2022-12-08T19:01:24.088Z,4.50
2022-12-08T19:04:26.699Z,4.50
2022-12-08T19:06:58.006Z,4.50
2022-12-08T19:09:34.793Z,4.60
2022-12-08T19:12:06.371Z,4.50
2022-12-08T19:14:35.274Z,4.60
2022-12-08T19:17:10.430Z,4.60
2022-12-08T19:19:54.970Z,4.60
2022-12-08T19:22:25.562Z,4.60
2022-12-08T19:24:57.901Z,4.60
2022-12-08T19:27:34.672Z,4.60
2022-12-08T19:30:08.994Z,4.50
2022-12-08T19:32:39.069Z,4.60
2022-12-08T19:35:11.785Z,4.50
2022-12-08T19:37:47.075Z,4.50
2022-12-08T19:40:46.479Z,4.60
2022-12-08T19:43:45.192Z,4.50
2022-12-08T19:46:23.091Z,4.60
2022-12-08T19:48:58.992Z,4.60
2022-12-08T19:51:30.882Z,4.60
2022-12-08T19:54:03.980Z,4.50
2022-12-08T19:56:51.021Z,4.60
2022-12-08T19:59:45.798Z,4.60
2022-12-08T20:02:25.799Z,4.70
2022-12-08T20:04:57.433Z,4.70
2022-12-08T20:07:28.276Z,4.70
2022-12-08T20:10:00.716Z,4.70
2022-12-08T20:12:32.872Z,4.70
2022-12-08T20:15:14.703Z,4.70
2022-12-08T20:17:46.216Z,4.60
2022-12-08T20:20:16.223Z,4.60
2022-12-08T20:22:48.811Z,4.60
2022-12-08T20:25:21.310Z,4.50
2022-12-08T20:30:40.218Z,4.50
2022-12-08T20:33:22.562Z,4.60
2022-12-08T20:36:14.259Z,4.60
2022-12-08T20:38:48.252Z,4.60
2022-12-08T20:41:21.253Z,4.60
2022-12-08T20:43:52.221Z,4.70
2022-12-08T20:49:09.317Z,4.50
2022-12-08T20:51:42.713Z,4.50
2022-12-08T20:54:13.858Z,4.60
2022-12-08T20:56:49.626Z,4.50
2022-12-08T20:59:23.559Z,4.60
2022-12-08T21:02:05.436Z,4.60
2022-12-08T21:04:50.974Z,4.60
2022-12-08T21:07:23.575Z,4.60
2022-12-08T21:10:00.823Z,4.50
2022-12-08T21:12:30.391Z,4.50
2022-12-08T21:15:02.073Z,4.50
2022-12-08T21:17:43.117Z,4.50
2022-12-08T21:20:12.512Z,4.50
2022-12-08T21:22:44.084Z,4.50
2022-12-08T21:25:11.667Z,4.60
2022-12-08T21:27:44.588Z,4.60
2022-12-08T21:30:16.265Z,4.60
2022-12-08T21:32:47.480Z,4.60
2022-12-08T21:35:16.396Z,4.60
2022-12-08T21:37:49.233Z,4.50
2022-12-08T21:40:22.649Z,4.70
2022-12-08T21:42:53.736Z,4.50
2022-12-08T21:45:22.998Z,4.50
2022-12-08T21:47:54.836Z,4.50
2022-12-08T21:50:26.885Z,4.50
2022-12-08T21:52:57.728Z,4.50
2022-12-08T21:55:31.885Z,4.50
2022-12-08T21:58:04.421Z,4.50
2022-12-08T22:00:37.078Z,4.40
2022-12-08T22:03:14.268Z,4.40
2022-12-08T22:05:49.936Z,4.30
2022-12-08T22:08:21.176Z,4.40
2022-12-08T22:10:49.890Z,4.30
2022-12-08T22:13:29.706Z,4.30
2022-12-08T22:16:02.672Z,4.40
2022-12-08T22:18:33.825Z,4.30
2022-12-08T22:21:16.876Z,4.40
2022-12-08T22:26:34.912Z,4.40
2022-12-08T22:31:47.347Z,4.50
2022-12-08T22:34:19.083Z,4.50
2022-12-08T22:37:03.063Z,4.50
2022-12-08T22:39:34.669Z,4.50
2022-12-08T22:42:14.593Z,4.60
2022-12-08T22:44:44.645Z,4.60
2022-12-08T22:47:19.315Z,4.60
2022-12-08T22:49:51.381Z,4.60
2022-12-08T22:52:21.808Z,4.60
2022-12-08T22:54:54.375Z,4.60
2022-12-08T22:57:23.309Z,4.60
2022-12-08T22:59:53.100Z,4.60
2022-12-08T23:02:24.989Z,4.60
2022-12-08T23:05:01.020Z,4.60
2022-12-08T23:07:33.910Z,4.60
2022-12-08T23:10:04.149Z,4.50
2022-12-08T23:12:43.425Z,4.60
2022-12-08T23:15:23.363Z,4.60
2022-12-08T23:18:02.299Z,4.60
2022-12-08T23:20:31.470Z,4.50
2022-12-08T23:23:03.659Z,4.50
2022-12-08T23:25:43.462Z,4.60
2022-12-08T23:28:15.696Z,4.60
2022-12-08T23:30:45.689Z,4.60
2022-12-08T23:36:07.828Z,4.50
2022-12-08T23:38:38.924Z,4.50
2022-12-08T23:41:18.925Z,4.50
2022-12-08T23:43:52.424Z,4.60
2022-12-08T23:46:23.593Z,4.60
2022-12-08T23:48:54.948Z,4.60
2022-12-08T23:51:25.667Z,4.60
2022-12-08T23:56:40.790Z,4.70
